Time;durP1;ratioP1;P1;durP2;ratioP2;P2;SDS_P1;SDS_P2;PMS_P1;PMS_P2;Temp;Humidity;BMP_temperature;BMP_pressure;BME280_temperature;BME280_humidity;BME280_pressure;Samples;Min_cycle;Max_cycle;Signal;HPM_P1;HPM_P2
2022/02/24 00:00:57;;;;;;;10.13;1.98;;;4.50;99.90;;;;;;5026041;28;20436;-62
2022/02/24 00:03:23;;;;;;;11.38;2.13;;;4.60;99.90;;;;;;5027459;28;20041;-61
2022/02/24 00:05:50;;;;;;;6.53;1.75;;;4.50;99.90;;;;;;5024466;28;20142;-61
2022/02/24 00:08:16;;;;;;;5.68;1.75;;;4.50;99.90;;;;;;5021430;28;20029;-62
2022/02/24 00:10:41;;;;;;;6.75;1.90;;;4.50;99.90;;;;;;5020198;28;20038;-62
2022/02/24 00:13:07;;;;;;;6.93;2.15;;;4.50;99.90;;;;;;5016959;28;20591;-61
2022/02/24 00:15:32;;;;;;;;;;;4.50;99.90;;;;;;5017936;28;20125;-62
2022/02/24 00:17:58;;;;;;;7.53;2.00;;;4.50;99.90;;;;;;5010510;28;19924;-62
2022/02/24 00:20:24;;;;;;;4.45;1.77;;;4.50;99.90;;;;;;5005850;28;20424;-62
2022/02/24 00:22:49;;;;;;;6.75;1.58;;;4.60;99.90;;;;;;5007248;28;20103;-62
2022/02/24 00:25:15;;;;;;;6.47;2.30;;;4.60;99.90;;;;;;5002921;28;20030;-62
2022/02/24 00:27:41;;;;;;;7.80;1.90;;;4.60;99.90;;;;;;5001716;28;20049;-62
2022/02/24 00:30:07;;;;;;;9.25;2.67;;;4.60;99.90;;;;;;5004464;28;20772;-62
2022/02/24 00:32:33;;;;;;;8.20;2.10;;;4.60;99.90;;;;;;5024999;28;20556;-62
2022/02/24 00:34:59;;;;;;;5.65;2.00;;;4.60;99.90;;;;;;5023034;28;20044;-62
2022/02/24 00:37:24;;;;;;;4.95;1.77;;;4.50;99.90;;;;;;5024689;28;20111;-62
2022/02/24 00:39:50;;;;;;;7.43;1.80;;;4.50;99.90;;;;;;5026638;28;20524;-62
2022/02/24 00:42:15;;;;;;;5.18;1.80;;;4.50;99.90;;;;;;5025984;28;20476;-64
2022/02/24 00:44:41;;;;;;;;;;;4.50;99.90;;;;;;5024436;28;20156;-62
2022/02/24 00:47:07;;;;;;;5.50;1.75;;;4.40;99.90;;;;;;5023778;28;19925;-62
2022/02/24 00:49:33;;;;;;;7.40;2.38;;;4.40;99.90;;;;;;5026472;28;20104;-63
2022/02/24 00:51:59;;;;;;;7.90;1.90;;;4.50;99.90;;;;;;5026852;28;20045;-62
2022/02/24 00:54:25;;;;;;;4.05;1.63;;;4.50;99.90;;;;;;5026366;28;20112;-62
2022/02/24 00:56:50;;;;;;;12.07;2.15;;;4.50;99.90;;;;;;5026112;28;20096;-63
2022/02/24 00:59:16;;;;;;;9.60;2.00;;;4.50;99.90;;;;;;5026334;28;20030;-63
2022/02/24 01:01:42;;;;;;;5.10;2.08;;;4.50;99.90;;;;;;5023482;28;20042;-62
2022/02/24 01:04:08;;;;;;;7.70;2.03;;;4.50;99.90;;;;;;5024594;28;20121;-63
2022/02/24 01:06:33;;;;;;;5.28;1.90;;;4.50;99.90;;;;;;5026440;28;20065;-62
2022/02/24 01:08:59;;;;;;;8.50;1.85;;;4.50;99.90;;;;;;5029523;28;20033;-62
2022/02/24 01:11:25;;;;;;;7.95;2.33;;;4.50;99.90;;;;;;5026788;28;20576;-63
2022/02/24 01:13:51;;;;;;;6.95;2.15;;;4.50;99.90;;;;;;5025593;28;20728;-62
2022/02/24 01:16:16;;;;;;;7.65;1.75;;;4.50;99.90;;;;;;5024564;28;20124;-62
2022/02/24 01:18:42;;;;;;;5.32;1.75;;;4.60;99.90;;;;;;5008520;28;20042;-62
2022/02/24 01:21:08;;;;;;;8.90;2.90;;;4.60;99.90;;;;;;5025729;28;20481;-63
2022/02/24 01:23:33;;;;;;;6.93;2.05;;;4.60;99.90;;;;;;5026327;28;20052;-62
2022/02/24 01:25:59;;;;;;;7.63;1.58;;;4.60;99.90;;;;;;5020660;28;20057;-62
2022/02/24 01:28:25;;;;;;;;;;;4.70;99.90;;;;;;5025897;28;20052;-62
2022/02/24 01:30:50;;;;;;;8.45;2.00;;;4.70;99.90;;;;;;5023224;28;19917;-61
2022/02/24 01:33:16;;;;;;;7.75;2.08;;;4.70;99.90;;;;;;5026231;28;20059;-62
2022/02/24 01:35:42;;;;;;;10.43;1.83;;;4.70;99.90;;;;;;5020753;28;20711;-62
2022/02/24 01:38:07;;;;;;;7.80;1.88;;;4.70;99.90;;;;;;5023567;28;20069;-62
2022/02/24 01:40:33;;;;;;;7.80;1.95;;;4.70;99.90;;;;;;5016588;22;20054;-63
2022/02/24 01:42:59;;;;;;;5.95;1.60;;;4.80;99.90;;;;;;5006025;28;20085;-62
2022/02/24 01:45:25;;;;;;;5.53;1.58;;;4.70;99.90;;;;;;5007851;28;20077;-62
2022/02/24 01:47:51;;;;;;;8.23;1.38;;;4.80;99.90;;;;;;5009749;28;20477;-63
2022/02/24 01:50:17;;;;;;;4.07;1.38;;;4.80;99.90;;;;;;5012367;28;20651;-63
2022/02/24 01:52:44;;;;;;;5.45;1.48;;;4.80;99.90;;;;;;5013677;28;20059;-63
2022/02/24 01:55:10;;;;;;;7.25;1.60;;;4.90;99.90;;;;;;5012059;28;20048;-62
2022/02/24 01:57:36;;;;;;;4.90;1.85;;;4.80;99.90;;;;;;5013300;28;20096;-62
2022/02/24 02:00:05;;;;;;;7.35;1.67;;;4.90;99.90;;;;;;5013175;28;20034;-63
2022/02/24 02:02:31;;;;;;;11.35;2.25;;;4.90;99.90;;;;;;5009556;28;20128;-62
2022/02/24 02:04:56;;;;;;;11.70;2.28;;;4.90;99.90;;;;;;5001451;28;20654;-62
2022/02/24 02:07:22;;;;;;;;;;;5.00;99.90;;;;;;5007750;28;20044;-62
2022/02/24 02:09:48;;;;;;;5.57;1.73;;;5.00;99.90;;;;;;5016687;28;19924;-61
2022/02/24 02:12:18;;;;;;;6.53;2.20;;;5.00;99.90;;;;;;5004841;28;20045;-62
2022/02/24 02:14:44;;;;;;;10.15;2.20;;;5.10;99.90;;;;;;5008879;28;20117;-62
2022/02/24 02:17:09;;;;;;;7.40;2.30;;;5.10;99.90;;;;;;5012283;28;20124;-61
2022/02/24 02:19:36;;;;;;;8.25;2.60;;;5.10;99.90;;;;;;5013659;28;20471;-62
2022/02/24 02:22:02;;;;;;;3.92;1.80;;;5.00;99.90;;;;;;5013323;28;20041;-61
2022/02/24 02:24:27;;;;;;;8.70;1.90;;;5.10;99.90;;;;;;5010919;28;20104;-61
2022/02/24 02:26:53;;;;;;;8.57;1.98;;;5.10;99.90;;;;;;5008962;28;20464;-62
2022/02/24 02:29:19;;;;;;;4.30;1.80;;;5.00;99.90;;;;;;5011336;28;20096;-62
2022/02/24 02:31:45;;;;;;;7.90;2.20;;;5.10;99.90;;;;;;5013908;28;20041;-62
2022/02/24 02:34:13;;;;;;;4.43;1.70;;;5.10;99.90;;;;;;5027464;28;20108;-62
2022/02/24 02:36:40;;;;;;;6.63;2.10;;;5.10;99.90;;;;;;5011038;28;20071;-62
2022/02/24 02:39:10;;;;;;;9.60;2.20;;;5.00;99.90;;;;;;5013707;28;20041;-62
2022/02/24 02:41:37;;;;;;;9.90;2.60;;;5.10;99.90;;;;;;5004860;28;20050;-62
2022/02/24 02:44:03;;;;;;;13.57;2.95;;;5.10;99.90;;;;;;5004508;28;20085;-62
2022/02/24 02:46:29;;;;;;;7.70;2.58;;;5.10;99.90;;;;;;5012934;28;20481;-62
2022/02/24 02:48:54;;;;;;;5.97;2.13;;;5.10;99.90;;;;;;5031436;28;20075;-62
2022/02/24 02:51:20;;;;;;;6.70;2.15;;;5.10;99.90;;;;;;5008669;28;20038;-61
2022/02/24 02:53:46;;;;;;;7.88;2.58;;;5.20;99.90;;;;;;5014722;28;20049;-62
2022/02/24 02:56:13;;;;;;;12.48;3.38;;;5.20;99.90;;;;;;5004302;28;20080;-60
2022/02/24 02:58:39;;;;;;;7.03;2.45;;;5.20;99.90;;;;;;5003997;28;20467;-61
2022/02/24 03:01:05;;;;;;;6.25;2.40;;;5.20;99.90;;;;;;4998040;28;20121;-61
2022/02/24 03:03:30;;;;;;;14.93;2.75;;;5.20;99.90;;;;;;5008531;28;20038;-62
2022/02/24 03:05:56;;;;;;;;;;;5.20;99.90;;;;;;5007480;28;20042;-62
2022/02/24 03:08:22;;;;;;;9.30;2.70;;;5.20;99.90;;;;;;5016203;28;20430;-62
2022/02/24 03:10:48;;;;;;;;;;;5.20;99.90;;;;;;5008401;28;20042;-61
2022/02/24 03:13:14;;;;;;;14.63;2.83;;;5.20;99.90;;;;;;5002768;28;19917;-62
2022/02/24 03:15:41;;;;;;;10.40;2.50;;;5.20;99.90;;;;;;5009738;28;20132;-63
2022/02/24 03:18:07;;;;;;;12.68;3.67;;;5.20;99.90;;;;;;5013420;28;20042;-62
2022/02/24 03:20:32;;;;;;;9.52;2.80;;;5.10;99.90;;;;;;5010165;28;20091;-63
2022/02/24 03:22:58;;;;;;;;;;;5.10;99.90;;;;;;5014349;28;20042;-63
2022/02/24 03:25:24;;;;;;;7.97;2.97;;;5.10;99.90;;;;;;5003491;28;20385;-62
2022/02/24 03:27:50;;;;;;;13.20;2.80;;;5.20;99.90;;;;;;5001766;28;20042;-63
2022/02/24 03:30:15;;;;;;;10.07;3.10;;;5.20;99.90;;;;;;5007964;28;20034;-61
2022/02/24 03:32:43;;;;;;;10.57;3.25;;;5.20;99.90;;;;;;5007201;28;20072;-62
2022/02/24 03:35:10;;;;;;;9.15;2.08;;;5.20;99.90;;;;;;5010074;28;20528;-61
2022/02/24 03:37:35;;;;;;;7.03;2.60;;;5.20;99.90;;;;;;5009827;28;20077;-62
2022/02/24 03:40:05;;;;;;;13.88;2.90;;;5.10;99.90;;;;;;5011734;28;20125;-63
2022/02/24 03:42:32;;;;;;;13.60;2.63;;;5.20;99.90;;;;;;5004192;28;20073;-62
2022/02/24 03:44:58;;;;;;;12.35;3.33;;;5.10;99.90;;;;;;5015159;28;20040;-63
2022/02/24 03:47:24;;;;;;;11.73;2.83;;;5.10;99.90;;;;;;5002148;28;20042;-63
2022/02/24 03:49:50;;;;;;;12.18;3.00;;;5.20;99.90;;;;;;5004402;28;20091;-62
2022/02/24 03:52:16;;;;;;;12.65;3.40;;;5.20;99.90;;;;;;4997462;28;20124;-62
2022/02/24 03:54:43;;;;;;;13.48;3.20;;;5.20;99.90;;;;;;5013045;28;20128;-63
2022/02/24 03:57:09;;;;;;;16.30;3.42;;;5.20;99.90;;;;;;5012505;28;20038;-62
2022/02/24 03:59:36;;;;;;;9.68;2.88;;;5.20;99.90;;;;;;5007046;28;20046;-62
2022/02/24 04:02:01;;;;;;;7.78;3.15;;;5.20;99.90;;;;;;5007300;28;20096;-61
2022/02/24 04:04:27;;;;;;;10.93;3.28;;;5.20;99.90;;;;;;5008380;28;20045;-62
2022/02/24 04:06:52;;;;;;;11.40;3.65;;;5.20;99.90;;;;;;5015089;28;20555;-62
2022/02/24 04:09:18;;;;;;;;;;;5.20;99.90;;;;;;5015392;28;20036;-62
2022/02/24 04:11:43;;;;;;;7.18;3.05;;;5.20;99.90;;;;;;5006582;28;19921;-62
2022/02/24 04:14:09;;;;;;;13.48;3.17;;;5.20;99.90;;;;;;5006963;28;20030;-62
2022/02/24 04:16:35;;;;;;;7.15;2.80;;;5.10;99.90;;;;;;5013426;28;20056;-62
2022/02/24 04:19:00;;;;;;;9.07;3.28;;;5.10;99.90;;;;;;5017814;28;20033;-62
2022/02/24 04:21:26;;;;;;;;;;;5.10;99.90;;;;;;5012757;28;20049;-62
2022/02/24 04:23:53;;;;;;;13.60;2.45;;;5.10;99.90;;;;;;5017801;28;19917;-61
2022/02/24 04:26:18;;;;;;;11.52;3.40;;;5.10;99.90;;;;;;5008454;28;20041;-61
2022/02/24 04:28:44;;;;;;;16.38;2.67;;;5.10;99.90;;;;;;5010851;28;20049;-62
2022/02/24 04:31:10;;;;;;;;;;;5.10;99.90;;;;;;5013292;28;20045;-62
2022/02/24 04:33:35;;;;;;;7.15;2.50;;;5.10;99.90;;;;;;5018264;28;19929;-62
2022/02/24 04:36:01;;;;;;;;;;;5.10;99.90;;;;;;5010756;28;20849;-62
2022/02/24 04:38:27;;;;;;;14.98;2.70;;;5.20;99.90;;;;;;5018569;28;19921;-62
2022/02/24 04:40:52;;;;;;;9.98;2.30;;;5.10;99.90;;;;;;5008765;28;20049;-62
2022/02/24 04:43:18;;;;;;;9.95;2.72;;;5.20;99.90;;;;;;5006834;28;20077;-61
2022/02/24 04:45:43;;;;;;;;;;;5.20;99.90;;;;;;5013713;28;20041;-62
2022/02/24 04:48:10;;;;;;;8.10;2.33;;;5.30;99.90;;;;;;5017656;28;20684;-63
2022/02/24 04:50:36;;;;;;;10.85;2.67;;;5.30;99.90;;;;;;5025343;28;20086;-62
2022/02/24 04:53:02;;;;;;;7.70;2.40;;;5.30;99.90;;;;;;5016694;28;20472;-62
2022/02/24 04:55:28;;;;;;;10.10;2.92;;;5.30;99.90;;;;;;5012189;28;20077;-62
2022/02/24 04:57:53;;;;;;;14.18;2.85;;;5.30;99.90;;;;;;5014037;28;20041;-62
2022/02/24 05:00:19;;;;;;;18.42;2.97;;;5.30;99.90;;;;;;5029150;28;20033;-62
2022/02/24 05:02:45;;;;;;;8.90;2.33;;;5.30;99.90;;;;;;5014817;28;20033;-61
2022/02/24 05:05:10;;;;;;;10.98;2.60;;;5.30;99.90;;;;;;5013555;28;20040;-62
2022/02/24 05:07:36;;;;;;;;;;;5.30;99.90;;;;;;5013895;28;20116;-62
2022/02/24 05:10:03;;;;;;;12.93;3.28;;;5.30;99.90;;;;;;5012299;28;19928;-62
2022/02/24 05:12:28;;;;;;;14.98;2.80;;;5.30;99.90;;;;;;5006212;28;20100;-61
2022/02/24 05:14:55;;;;;;;17.88;4.57;;;5.30;99.90;;;;;;5012887;28;20041;-61
2022/02/24 05:17:20;;;;;;;11.32;2.63;;;5.30;99.90;;;;;;5014458;28;20393;-62
2022/02/24 05:19:46;;;;;;;9.50;2.70;;;5.30;99.90;;;;;;5012641;28;20037;-60
2022/02/24 05:22:11;;;;;;;10.80;2.63;;;5.30;99.90;;;;;;5014868;28;21353;-62
2022/02/24 05:24:38;;;;;;;;;;;5.30;99.90;;;;;;5014063;28;20057;-61
2022/02/24 05:27:04;;;;;;;10.50;2.90;;;5.30;99.90;;;;;;5006563;28;19929;-62
2022/02/24 05:29:30;;;;;;;11.32;3.03;;;5.30;99.90;;;;;;5005521;28;20567;-63
2022/02/24 05:31:55;;;;;;;15.73;3.85;;;5.30;99.90;;;;;;5013200;28;20037;-62
2022/02/24 05:34:21;;;;;;;12.93;3.40;;;5.30;99.90;;;;;;5010413;28;20042;-62
2022/02/24 05:36:46;;;;;;;10.57;2.83;;;5.30;99.90;;;;;;5002980;28;20062;-63
2022/02/24 05:39:12;;;;;;;;;;;5.30;99.90;;;;;;5005494;28;20530;-63
2022/02/24 05:41:38;;;;;;;9.70;2.65;;;5.40;99.90;;;;;;5004749;28;19918;-63
2022/02/24 05:44:04;;;;;;;;;;;5.40;99.90;;;;;;5004400;28;20041;-63
2022/02/24 05:46:30;;;;;;;10.35;2.22;;;5.40;99.90;;;;;;5007687;28;20036;-64
2022/02/24 05:48:55;;;;;;;10.13;2.88;;;5.40;99.90;;;;;;5016673;28;20073;-67
2022/02/24 05:51:21;;;;;;;10.27;2.78;;;5.50;99.90;;;;;;5007565;28;20037;-63
2022/02/24 05:53:47;;;;;;;11.65;2.83;;;5.50;99.90;;;;;;5016191;28;20513;-64
2022/02/24 05:56:13;;;;;;;6.45;2.13;;;5.50;99.90;;;;;;5007027;28;20401;-63
2022/02/24 05:58:39;;;;;;;6.97;1.75;;;5.50;99.90;;;;;;5009531;28;20486;-62
2022/02/24 06:01:05;;;;;;;9.10;2.33;;;5.50;99.90;;;;;;5007304;28;20033;-64
2022/02/24 06:03:30;;;;;;;12.32;2.55;;;5.50;99.90;;;;;;5016218;28;20044;-61
2022/02/24 06:05:56;;;;;;;11.15;2.03;;;5.60;99.90;;;;;;5006842;28;20500;-63
2022/02/24 06:08:22;;;;;;;11.43;2.20;;;5.60;99.90;;;;;;5016882;28;20072;-62
2022/02/24 06:10:48;;;;;;;7.82;2.55;;;5.60;99.90;;;;;;5008372;28;20088;-62
2022/02/24 06:13:14;;;;;;;9.48;2.05;;;5.50;99.90;;;;;;5005473;28;20131;-62
2022/02/24 06:15:40;;;;;;;14.52;2.90;;;5.50;99.90;;;;;;5009689;28;20045;-63
2022/02/24 06:18:09;;;;;;;8.50;2.45;;;5.50;99.90;;;;;;5012618;28;20052;-64
2022/02/24 06:20:35;;;;;;;9.57;2.10;;;5.50;99.90;;;;;;5003374;28;20067;-64
2022/02/24 06:23:01;;;;;;;9.90;2.08;;;5.50;99.90;;;;;;5005702;28;20037;-64
2022/02/24 06:25:27;;;;;;;3.95;1.65;;;5.50;99.90;;;;;;5003871;28;20038;-62
2022/02/24 06:27:53;;;;;;;11.98;2.42;;;5.60;99.90;;;;;;5004138;28;20609;-63
2022/02/24 06:30:19;;;;;;;6.00;2.10;;;5.60;99.90;;;;;;5006679;28;20033;-62
2022/02/24 06:32:45;;;;;;;7.97;1.80;;;5.60;99.90;;;;;;5014125;28;20128;-63
2022/02/24 06:35:12;;;;;;;6.68;2.20;;;5.70;99.90;;;;;;5011222;28;20624;-63
2022/02/24 06:37:42;;;;;;;9.85;2.35;;;5.70;99.90;;;;;;5013143;28;20053;-62
2022/02/24 06:40:09;;;;;;;7.68;2.17;;;5.70;99.90;;;;;;5014101;28;20084;-63
2022/02/24 06:42:35;;;;;;;6.30;1.70;;;5.70;99.90;;;;;;5004844;28;20046;-62
2022/02/24 06:45:01;;;;;;;10.88;1.73;;;5.70;99.90;;;;;;5011528;28;20040;-62
2022/02/24 06:47:27;;;;;;;9.48;2.40;;;5.70;99.90;;;;;;5009082;28;20129;-61
2022/02/24 06:49:52;;;;;;;8.25;1.95;;;5.70;99.90;;;;;;5012868;28;20038;-62
2022/02/24 06:52:18;;;;;;;6.40;2.13;;;5.70;99.90;;;;;;5012572;28;20157;-61
2022/02/24 06:54:43;;;;;;;7.15;1.98;;;5.80;99.90;;;;;;5011860;28;20159;-62
2022/02/24 06:57:09;;;;;;;8.88;2.42;;;5.80;99.90;;;;;;5012774;28;20045;-63
2022/02/24 06:59:35;;;;;;;;;;;5.80;99.90;;;;;;5013887;28;20072;-62
2022/02/24 07:02:01;;;;;;;6.90;2.00;;;5.80;99.90;;;;;;5012147;28;19971;-62
2022/02/24 07:04:26;;;;;;;9.93;2.58;;;5.80;99.90;;;;;;5012296;28;20066;-62
2022/02/24 07:06:52;;;;;;;8.48;2.00;;;5.80;99.90;;;;;;5003178;28;20546;-62
2022/02/24 07:09:18;;;;;;;7.45;1.77;;;5.80;99.90;;;;;;5003734;28;20033;-62
2022/02/24 07:11:43;;;;;;;8.00;1.90;;;5.80;99.90;;;;;;5002792;28;20034;-61
2022/02/24 07:14:09;;;;;;;7.05;2.20;;;5.80;99.90;;;;;;5001690;28;20042;-62
2022/02/24 07:16:35;;;;;;;;;;;5.80;99.90;;;;;;5001080;28;20105;-62
2022/02/24 07:19:02;;;;;;;8.60;2.53;;;5.80;99.90;;;;;;5003978;28;19975;-63
2022/02/24 07:21:28;;;;;;;6.43;1.95;;;5.90;99.90;;;;;;5014563;28;20041;-63
2022/02/24 07:23:53;;;;;;;7.50;1.92;;;5.90;99.90;;;;;;5007035;28;20042;-62
2022/02/24 07:26:19;;;;;;;10.48;2.50;;;5.90;99.90;;;;;;5014949;28;20038;-63
2022/02/24 07:28:45;;;;;;;6.80;2.22;;;5.90;99.90;;;;;;5019032;28;20038;-63
2022/02/24 07:31:12;;;;;;;12.50;2.97;;;5.90;99.90;;;;;;5021506;28;20083;-61
2022/02/24 07:33:38;;;;;;;6.45;2.22;;;5.90;99.90;;;;;;5014096;28;20106;-63
2022/02/24 07:36:05;;;;;;;8.60;2.50;;;5.90;99.90;;;;;;5006427;28;20072;-62
2022/02/24 07:38:31;;;;;;;11.05;2.25;;;5.90;99.90;;;;;;5008660;28;20572;-61
2022/02/24 07:40:56;;;;;;;19.42;2.38;;;5.90;99.90;;;;;;5015800;28;20050;-62
2022/02/24 07:43:22;;;;;;;9.15;2.55;;;5.90;99.90;;;;;;5007937;28;20417;-62
2022/02/24 07:45:47;;;;;;;17.40;2.65;;;5.90;99.90;;;;;;5012918;28;20041;-62
2022/02/24 07:48:13;;;;;;;9.82;2.53;;;6.00;99.90;;;;;;5018469;28;20033;-62
2022/02/24 07:50:39;;;;;;;6.78;2.70;;;6.00;99.90;;;;;;5013042;28;20037;-61
2022/02/24 07:53:04;;;;;;;;;;;6.00;99.90;;;;;;5018525;28;20100;-63
2022/02/24 07:55:30;;;;;;;7.13;2.33;;;6.00;99.90;;;;;;5013082;28;19913;-61
2022/02/24 07:57:56;;;;;;;8.68;2.58;;;6.10;99.90;;;;;;5016089;28;20135;-62
2022/02/24 08:00:22;;;;;;;9.65;2.63;;;6.10;99.90;;;;;;5014441;28;20109;-62
2022/02/24 08:02:48;;;;;;;;;;;6.20;99.90;;;;;;5016215;28;20696;-62
2022/02/24 08:05:16;;;;;;;11.93;2.78;;;6.20;99.90;;;;;;5008968;28;19928;-62
2022/02/24 08:07:42;;;;;;;5.68;2.25;;;6.30;99.90;;;;;;5006488;28;20050;-63
2022/02/24 08:10:08;;;;;;;12.52;2.55;;;6.40;99.90;;;;;;5016517;28;20072;-63
2022/02/24 08:12:39;;;;;;;7.72;2.25;;;6.50;99.90;;;;;;5006740;28;20039;-63
2022/02/24 08:15:10;;;;;;;9.35;2.00;;;6.60;99.90;;;;;;5015208;28;20045;-62
2022/02/24 08:17:35;;;;;;;8.43;2.55;;;6.70;99.90;;;;;;5014618;28;20535;-62
2022/02/24 08:20:05;;;;;;;5.35;2.00;;;6.80;99.90;;;;;;5015850;28;20156;-63
2022/02/24 08:22:32;;;;;;;13.43;1.65;;;7.00;99.90;;;;;;5012766;28;20041;-63
2022/02/24 08:24:57;;;;;;;6.47;1.92;;;7.20;99.90;;;;;;5012537;28;20050;-63
2022/02/24 08:27:23;;;;;;;;;;;7.40;99.90;;;;;;5015707;28;20050;-63
2022/02/24 08:29:49;;;;;;;6.57;1.95;;;7.30;99.90;;;;;;5015156;28;19940;-63
2022/02/24 08:32:14;;;;;;;10.57;2.00;;;7.30;99.90;;;;;;5011713;28;20049;-62
2022/02/24 08:34:40;;;;;;;;;;;7.30;99.90;;;;;;5011063;28;20441;-62
2022/02/24 08:37:05;;;;;;;7.93;1.80;;;7.40;99.90;;;;;;5006032;28;19921;-62
2022/02/24 08:39:31;;;;;;;;;;;7.50;99.90;;;;;;5005629;28;20038;-62
2022/02/24 08:41:56;;;;;;;10.98;1.95;;;7.60;99.90;;;;;;5001579;28;19918;-62
2022/02/24 08:44:22;;;;;;;;;;;7.60;99.90;;;;;;5004512;28;20041;-62
2022/02/24 08:46:48;;;;;;;7.88;1.92;;;7.70;99.90;;;;;;5009730;28;19928;-62
2022/02/24 08:49:13;;;;;;;8.63;1.70;;;7.80;99.90;;;;;;5012371;28;20040;-62
2022/02/24 08:51:40;;;;;;;8.20;1.73;;;7.80;99.90;;;;;;5003227;28;20551;-63
2022/02/24 08:54:06;;;;;;;6.78;1.60;;;7.80;99.90;;;;;;5003239;28;20042;-63
2022/02/24 08:56:31;;;;;;;;;;;7.90;99.90;;;;;;4998262;28;20104;-63
2022/02/24 08:58:57;;;;;;;8.00;2.25;;;8.00;99.90;;;;;;5003262;28;19988;-63
2022/02/24 09:01:22;;;;;;;;;;;8.10;99.90;;;;;;5005444;28;20557;-63
2022/02/24 09:03:48;;;;;;;9.13;1.92;;;8.10;99.90;;;;;;5003351;28;19921;-62
2022/02/24 09:06:16;;;;;;;;;;;8.20;99.90;;;;;;5011182;28;20080;-63
2022/02/24 09:08:43;;;;;;;9.25;1.60;;;8.30;99.90;;;;;;5011469;28;19929;-62
2022/02/24 09:11:09;;;;;;;7.47;1.52;;;8.40;99.90;;;;;;5005712;28;20038;-63
2022/02/24 09:13:35;;;;;;;;;;;8.60;99.90;;;;;;5022025;28;20038;-63
2022/02/24 09:16:01;;;;;;;6.03;1.70;;;8.70;99.90;;;;;;5009513;28;20390;-63
2022/02/24 09:18:26;;;;;;;12.48;2.47;;;8.60;99.90;;;;;;5018435;28;20041;-63
2022/02/24 09:20:52;;;;;;;9.27;2.97;;;8.60;99.90;;;;;;5009552;28;20195;-62
2022/02/24 09:23:18;;;;;;;;;;;8.80;99.90;;;;;;5018964;28;20052;-63
2022/02/24 09:25:43;;;;;;;7.32;2.00;;;8.70;99.90;;;;;;5007269;28;20020;-67
2022/02/24 09:28:09;;;;;;;;;;;8.60;99.90;;;;;;5011378;28;20038;-64
2022/02/24 09:30:35;;;;;;;5.45;1.80;;;8.40;99.90;;;;;;5010666;28;20027;-63
2022/02/24 09:33:00;;;;;;;;;;;8.50;99.90;;;;;;5017268;28;20637;-64
2022/02/24 09:35:26;;;;;;;6.50;1.92;;;8.60;99.90;;;;;;5008695;28;19917;-64
2022/02/24 09:37:52;;;;;;;;;;;8.60;99.90;;;;;;5015648;28;20046;-64
2022/02/24 09:40:18;;;;;;;7.47;1.83;;;8.40;99.90;;;;;;5013892;28;19940;-64
2022/02/24 09:42:44;;;;;;;5.88;1.70;;;8.40;99.90;;;;;;5002585;28;20069;-63
2022/02/24 09:45:10;;;;;;;5.65;2.13;;;8.30;99.90;;;;;;5002088;28;20037;-63
2022/02/24 09:47:39;;;;;;;10.70;2.08;;;8.20;99.90;;;;;;5004941;28;20497;-64
2022/02/24 09:50:07;;;;;;;7.78;2.25;;;8.30;99.90;;;;;;5005198;28;20073;-64
2022/02/24 09:52:33;;;;;;;10.25;2.97;;;8.10;99.90;;;;;;5006252;28;20041;-63
2022/02/24 09:54:59;;;;;;;9.05;2.35;;;8.00;99.90;;;;;;5005016;28;20092;-63
2022/02/24 09:57:25;;;;;;;;;;;7.90;99.90;;;;;;5005680;28;20041;-63
2022/02/24 09:59:50;;;;;;;5.68;1.77;;;7.90;99.90;;;;;;5003850;28;19927;-64
2022/02/24 10:02:16;;;;;;;;;;;8.00;99.90;;;;;;5005512;28;20052;-66
2022/02/24 10:05:06;;;;;;;8.30;2.15;;;7.90;99.90;;;;;;5003152;28;19956;-64
2022/02/24 10:07:35;;;;;;;4.88;1.70;;;7.90;99.90;;;;;;5010428;28;20050;-63
2022/02/24 10:10:20;;;;;;;8.05;2.20;;;7.80;99.90;;;;;;5012536;28;20041;-63
2022/02/24 10:13:09;;;;;;;6.57;1.65;;;7.80;99.90;;;;;;5005622;28;20050;-64
2022/02/24 10:15:41;;;;;;;9.90;2.20;;;7.80;99.90;;;;;;5005598;28;20073;-63
2022/02/24 10:18:17;;;;;;;7.55;1.95;;;7.80;99.90;;;;;;5015663;28;20038;-63
2022/02/24 10:20:50;;;;;;;7.43;1.75;;;7.80;99.90;;;;;;5009734;28;20038;-63
2022/02/24 10:23:17;;;;;;;7.90;1.92;;;7.80;99.90;;;;;;5009986;28;20041;-62
2022/02/24 10:25:46;;;;;;;12.32;2.25;;;7.80;99.90;;;;;;5004872;28;20038;-64
2022/02/24 10:28:31;;;;;;;7.93;1.65;;;7.90;99.90;;;;;;5013946;28;20020;-64
2022/02/24 10:31:02;;;;;;;6.05;1.77;;;8.10;99.90;;;;;;5008806;28;20037;-63
2022/02/24 10:33:29;;;;;;;6.60;1.90;;;7.90;99.90;;;;;;5016847;28;20045;-63
2022/02/24 10:36:15;;;;;;;6.93;2.17;;;7.80;99.90;;;;;;5008193;28;20115;-63
2022/02/24 10:39:03;;;;;;;4.10;1.70;;;8.00;99.90;;;;;;5017556;28;20037;-64
2022/02/24 10:41:32;;;;;;;6.10;2.05;;;7.90;99.90;;;;;;5005587;28;20120;-64
2022/02/24 10:44:13;;;;;;;6.18;1.75;;;7.90;99.90;;;;;;5004592;28;20072;-64
2022/02/24 10:46:40;;;;;;;2.60;1.50;;;7.80;99.90;;;;;;5011509;28;20037;-64
2022/02/24 10:49:06;;;;;;;7.25;1.83;;;7.70;99.90;;;;;;5011618;28;20076;-62
2022/02/24 10:51:32;;;;;;;;;;;7.60;99.90;;;;;;5010395;28;20096;-63
2022/02/24 10:54:06;;;;;;;5.97;2.05;;;7.60;99.90;;;;;;5013823;28;19987;-64
2022/02/24 10:56:34;;;;;;;9.52;2.65;;;7.50;99.90;;;;;;5006157;28;20049;-64
2022/02/24 10:58:59;;;;;;;6.13;1.80;;;7.40;99.90;;;;;;5014059;28;20060;-63
2022/02/24 11:01:25;;;;;;;;;;;7.50;99.90;;;;;;5008538;28;20628;-61
2022/02/24 11:04:02;;;;;;;7.88;2.78;;;7.60;99.90;;;;;;5015594;28;20002;-61
2022/02/24 11:06:36;;;;;;;6.70;2.00;;;7.70;99.90;;;;;;5008836;28;20045;-61
2022/02/24 11:09:04;;;;;;;5.55;1.73;;;7.70;99.90;;;;;;5015067;28;20523;-61
2022/02/24 11:11:33;;;;;;;10.05;2.70;;;7.80;99.90;;;;;;5004708;28;20044;-61
2022/02/24 11:14:01;;;;;;;7.47;2.30;;;8.00;99.90;;;;;;5004675;28;20601;-61
2022/02/24 11:16:28;;;;;;;6.93;2.20;;;8.10;99.90;;;;;;5012878;28;20125;-61
2022/02/24 11:18:59;;;;;;;9.25;2.47;;;8.00;99.90;;;;;;5015804;28;20520;-61
2022/02/24 11:21:26;;;;;;;6.63;2.63;;;8.10;99.90;;;;;;5007806;28;20029;-61
2022/02/24 11:23:53;;;;;;;4.60;1.83;;;8.00;99.90;;;;;;5015089;28;20037;-61
2022/02/24 11:26:31;;;;;;;6.00;1.98;;;8.10;99.90;;;;;;5005815;28;20052;-61
2022/02/24 11:29:13;;;;;;;8.10;2.22;;;8.10;99.90;;;;;;5014866;28;20040;-61
2022/02/24 11:31:44;;;;;;;7.97;2.13;;;8.00;99.90;;;;;;5010680;28;20492;-61
2022/02/24 11:34:10;;;;;;;5.63;1.75;;;7.80;99.90;;;;;;5012191;28;20125;-61
2022/02/24 11:36:40;;;;;;;;;;;7.80;99.90;;;;;;5009712;28;20124;-62
2022/02/24 11:39:10;;;;;;;6.57;2.00;;;7.80;99.90;;;;;;5014570;28;19917;-60
2022/02/24 11:41:48;;;;;;;11.18;2.10;;;7.70;99.90;;;;;;5004004;28;20076;-61
2022/02/24 11:44:32;;;;;;;5.93;2.30;;;7.80;99.90;;;;;;5005331;28;20211;-61
2022/02/24 11:47:00;;;;;;;7.93;2.47;;;7.80;99.90;;;;;;5014669;28;20454;-61
2022/02/24 11:49:53;;;;;;;8.77;2.30;;;7.80;99.90;;;;;;5013237;28;20083;-61
2022/02/24 11:52:33;;;;;;;5.82;2.00;;;7.70;99.90;;;;;;5012722;28;20041;-61
2022/02/24 11:55:00;;;;;;;10.45;2.35;;;7.40;99.90;;;;;;5008991;28;20038;-61
2022/02/24 11:57:28;;;;;;;6.95;2.10;;;7.30;99.90;;;;;;5003524;28;20076;-60
2022/02/24 11:59:54;;;;;;;4.78;2.08;;;7.30;99.90;;;;;;5012297;28;20045;-61
2022/02/24 12:02:20;;;;;;;3.80;1.60;;;7.30;99.90;;;;;;5011358;28;20038;-61
2022/02/24 12:04:46;;;;;;;;;;;7.30;99.90;;;;;;5010007;28;20602;-61
2022/02/24 12:07:18;;;;;;;7.00;1.80;;;7.20;99.90;;;;;;5003053;28;19925;-60
2022/02/24 12:09:45;;;;;;;6.43;2.17;;;7.30;99.90;;;;;;5020080;28;20060;-61
2022/02/24 12:12:23;;;;;;;7.70;2.25;;;7.20;99.90;;;;;;5004937;28;20041;-61
2022/02/24 12:15:00;;;;;;;5.18;1.58;;;7.20;99.90;;;;;;5013007;28;20092;-60
2022/02/24 12:17:28;;;;;;;12.00;2.05;;;7.10;99.90;;;;;;5015812;28;20548;-61
2022/02/24 12:19:54;;;;;;;6.35;2.25;;;7.10;99.90;;;;;;5016478;28;20037;-61
2022/02/24 12:22:34;;;;;;;;;;;7.00;99.90;;;;;;5016353;28;20033;-60
2022/02/24 12:25:07;;;;;;;6.40;1.75;;;6.90;99.90;;;;;;5013505;28;19921;-61
2022/02/24 12:27:40;;;;;;;2.90;1.50;;;7.10;99.90;;;;;;5014319;28;20073;-61
2022/02/24 12:30:09;;;;;;;3.58;1.80;;;7.20;99.90;;;;;;5015420;28;20661;-61
2022/02/24 12:32:48;;;;;;;4.70;1.70;;;7.10;99.90;;;;;;5015782;28;20038;-61
2022/02/24 12:35:20;;;;;;;3.92;1.67;;;7.10;99.90;;;;;;5012730;28;20041;-61
2022/02/24 12:37:49;;;;;;;5.15;1.90;;;7.00;99.90;;;;;;5011985;28;20052;-61
2022/02/24 12:40:31;;;;;;;7.60;1.90;;;7.00;99.90;;;;;;5015566;28;20034;-61
2022/02/24 12:42:58;;;;;;;4.15;1.58;;;7.10;99.90;;;;;;5005507;28;20046;-61
2022/02/24 12:45:25;;;;;;;4.07;1.45;;;7.10;99.90;;;;;;5013709;28;20046;-61
2022/02/24 12:47:53;;;;;;;8.25;1.70;;;7.10;99.90;;;;;;5015417;28;20103;-61
2022/02/24 12:50:32;;;;;;;6.03;1.70;;;7.10;99.90;;;;;;5007620;28;20034;-60
2022/02/24 12:53:06;;;;;;;3.45;1.60;;;7.00;99.90;;;;;;5016720;28;20046;-60
2022/02/24 12:55:31;;;;;;;5.20;1.63;;;7.10;99.90;;;;;;5010636;28;20038;-60
2022/02/24 12:57:57;;;;;;;;;;;7.10;99.90;;;;;;5017532;28;20048;-61
2022/02/24 13:00:23;;;;;;;3.53;1.40;;;7.10;99.90;;;;;;5014058;28;20051;-61
2022/02/24 13:02:48;;;;;;;9.18;1.60;;;7.20;99.90;;;;;;5016124;28;20045;-61
2022/02/24 13:05:14;;;;;;;;;;;7.20;99.90;;;;;;5011949;28;20045;-60